createdAt,value
2023-03-15T04:13:28.518Z,2.20
2023-03-15T04:19:30.012Z,12.83
2023-03-15T04:25:40.679Z,11.47
2023-03-15T04:29:12.121Z,3.87
2023-03-15T04:33:58.656Z,6.00
2023-03-15T04:39:49.592Z,9.37
2023-03-15T04:43:00.743Z,6.23
2023-03-15T04:46:43.137Z,4.90
2023-03-15T04:50:52.345Z,4.70
2023-03-15T04:53:40.402Z,5.47
2023-03-15T04:57:19.478Z,9.87
2023-03-15T05:00:46.534Z,9.07
2023-03-15T05:04:01.354Z,7.70
2023-03-15T05:08:34.200Z,7.23
2023-03-15T05:23:09.106Z,9.40
2023-03-15T05:26:32.185Z,12.77
2023-03-15T05:29:55.503Z,8.23
2023-03-15T05:33:24.195Z,7.67
2023-03-15T05:37:31.494Z,10.07
2023-03-15T05:44:50.175Z,9.60
2023-03-15T05:52:36.556Z,10.10
2023-03-15T05:59:31.997Z,7.33
2023-03-15T06:39:58.783Z,10.77
2023-03-15T06:43:29.007Z,7.17
2023-03-15T07:02:13.930Z,7.73
2023-03-15T07:05:40.814Z,14.45
2023-03-15T07:11:34.771Z,7.20
2023-03-15T07:14:32.740Z,9.32
2023-03-15T07:17:12.003Z,10.27
2023-03-15T07:20:12.418Z,7.82
2023-03-15T07:23:00.409Z,11.38
2023-03-15T07:25:37.640Z,10.90
2023-03-15T07:28:12.105Z,7.77
2023-03-15T07:31:07.730Z,11.23
2023-03-15T07:33:54.737Z,11.93
2023-03-15T07:37:02.598Z,9.25
2023-03-15T07:39:45.622Z,7.75
2023-03-15T07:42:26.250Z,10.55
2023-03-15T07:45:09.393Z,7.53
2023-03-15T07:48:00.594Z,7.65
2023-03-15T07:50:40.857Z,11.38
2023-03-15T07:53:41.350Z,8.20
2023-03-15T07:56:48.678Z,11.82
2023-03-15T08:00:17.715Z,8.73
2023-03-15T08:02:47.057Z,9.57
2023-03-15T08:05:43.484Z,9.18
2023-03-15T08:08:18.765Z,9.30
2023-03-15T08:11:14.301Z,12.65
2023-03-15T08:14:05.170Z,12.50
2023-03-15T08:16:52.114Z,11.02
2023-03-15T08:19:32.206Z,8.68
2023-03-15T08:22:10.250Z,10.75
2023-03-15T08:27:47.976Z,9.13
2023-03-15T08:30:48.754Z,9.80
2023-03-15T08:33:22.005Z,8.88
2023-03-15T08:36:15.119Z,7.68
2023-03-15T08:38:51.629Z,11.00
2023-03-15T08:42:24.256Z,8.77
2023-03-15T08:45:24.580Z,12.55
2023-03-15T08:52:00.575Z,9.00
2023-03-15T08:55:36.422Z,12.13
2023-03-15T08:57:51.266Z,11.70
2023-03-15T09:01:00.823Z,11.43
2023-03-15T09:03:39.862Z,10.63
2023-03-15T09:06:29.991Z,7.45
2023-03-15T09:09:38.282Z,6.53
2023-03-15T09:16:07.041Z,14.35
2023-03-15T09:18:53.604Z,11.13
2023-03-15T09:21:52.955Z,14.70
2023-03-15T09:24:39.255Z,14.60
2023-03-15T09:27:39.616Z,9.90
2023-03-15T09:31:00.157Z,9.90
2023-03-15T09:33:40.291Z,5.93
2023-03-15T09:44:31.025Z,8.18
2023-03-15T09:47:42.058Z,9.75
2023-03-15T09:50:47.857Z,9.05
2023-03-15T09:53:40.054Z,7.85
2023-03-15T09:56:52.257Z,11.32
2023-03-15T10:00:49.118Z,16.00
2023-03-15T10:04:18.631Z,7.15
2023-03-15T10:27:31.782Z,6.20
2023-03-15T10:50:51.480Z,10.70
2023-03-15T10:54:13.481Z,15.82
2023-03-15T11:00:52.865Z,12.43
2023-03-15T11:08:41.003Z,10.13
2023-03-15T11:25:06.746Z,10.10
2023-03-15T11:28:25.999Z,8.52
2023-03-15T11:35:22.159Z,10.02
2023-03-15T11:38:56.165Z,7.70
2023-03-15T11:45:50.727Z,7.53
2023-03-15T11:49:18.665Z,9.93
2023-03-15T11:52:03.215Z,7.40
2023-03-15T11:55:28.411Z,7.03
2023-03-15T12:03:36.130Z,8.60
2023-03-15T12:18:46.728Z,11.65
2023-03-15T13:05:33.843Z,10.65
2023-03-15T13:12:09.811Z,5.45
2023-03-15T13:16:55.988Z,6.60
2023-03-15T13:18:39.276Z,4.80
2023-03-15T13:21:52.771Z,7.90
2023-03-15T13:29:36.097Z,14.75
2023-03-15T13:32:31.511Z,10.43
2023-03-15T13:36:19.044Z,7.40
2023-03-15T13:39:04.819Z,8.75
2023-03-15T13:45:43.121Z,9.38
2023-03-15T13:48:49.557Z,7.55
2023-03-15T13:59:08.118Z,7.95
2023-03-15T14:09:55.457Z,9.57
2023-03-15T14:14:08.942Z,8.55
2023-03-15T14:41:41.305Z,5.22
2023-03-15T15:03:04.626Z,7.90
2023-03-15T15:13:14.660Z,9.50
2023-03-15T15:25:53.791Z,9.02
2023-03-15T15:29:06.965Z,8.95
2023-03-15T15:31:59.282Z,9.00
2023-03-15T15:46:40.050Z,10.45
2023-03-15T15:50:28.128Z,6.22
2023-03-15T15:57:12.110Z,11.45
2023-03-15T16:00:24.717Z,11.38
2023-03-15T16:03:45.774Z,12.60
2023-03-15T16:06:41.581Z,12.45
2023-03-15T16:10:28.333Z,13.40
2023-03-15T16:13:11.434Z,15.13
2023-03-15T16:16:04.620Z,22.27
2023-03-15T16:18:56.410Z,19.10
2023-03-15T16:21:50.453Z,14.40
2023-03-15T16:24:57.761Z,11.02
2023-03-15T16:27:31.478Z,14.35
2023-03-15T16:30:26.654Z,21.75
2023-03-15T16:33:39.368Z,11.65
2023-03-15T16:36:35.466Z,11.07
2023-03-15T16:43:42.925Z,13.13
2023-03-15T16:47:15.719Z,22.52
2023-03-15T16:50:08.070Z,22.77
2023-03-15T16:56:25.403Z,13.07
2023-03-15T16:59:17.372Z,18.67
2023-03-15T17:01:56.438Z,26.63
2023-03-15T17:04:32.410Z,21.90
2023-03-15T17:07:37.280Z,22.30
2023-03-15T17:10:42.731Z,21.67
2023-03-15T17:13:45.259Z,25.40
2023-03-15T17:20:12.893Z,23.27
2023-03-15T17:23:20.719Z,27.37
2023-03-15T17:29:19.039Z,27.90
2023-03-15T17:32:54.742Z,29.33
2023-03-15T17:35:35.134Z,34.77
2023-03-15T17:38:26.218Z,40.60
2023-03-15T17:41:09.254Z,51.33
2023-03-15T18:35:04.138Z,81.73
2023-03-15T18:43:38.619Z,69.13
2023-03-15T18:55:27.701Z,92.63
2023-03-15T18:58:52.630Z,79.13
2023-03-15T19:10:25.641Z,100.63
2023-03-15T19:13:15.216Z,110.90
2023-03-15T19:16:37.171Z,133.70
2023-03-15T19:19:23.639Z,140.40
2023-03-15T19:22:16.011Z,146.90
2023-03-15T19:35:46.614Z,117.87
2023-03-15T19:47:01.203Z,124.20
2023-03-15T20:02:12.745Z,81.43
2023-03-15T20:05:01.482Z,90.67
2023-03-15T20:07:40.360Z,72.37
2023-03-15T20:10:38.116Z,82.80
2023-03-15T20:17:21.609Z,80.70
2023-03-15T20:20:02.093Z,78.90
2023-03-15T20:22:34.306Z,137.40
2023-03-15T20:25:18.594Z,158.07
2023-03-15T20:31:22.804Z,123.20
2023-03-15T20:34:35.221Z,127.07
2023-03-15T20:37:14.140Z,129.90
2023-03-15T20:39:50.299Z,114.87
2023-03-15T20:42:20.004Z,102.47
2023-03-15T20:44:52.775Z,100.97
2023-03-15T20:47:24.918Z,82.23
2023-03-15T20:49:59.583Z,70.60
2023-03-15T20:52:29.735Z,68.30
2023-03-15T20:54:58.311Z,65.57
2023-03-15T20:57:37.157Z,71.10
2023-03-15T21:00:13.550Z,65.67
2023-03-15T21:02:46.741Z,66.90
2023-03-15T21:05:27.508Z,64.07
2023-03-15T21:07:58.061Z,64.13
2023-03-15T21:10:34.186Z,57.90
2023-03-15T21:13:10.075Z,58.87
2023-03-15T21:15:48.255Z,55.33
2023-03-15T21:18:25.956Z,64.37
2023-03-15T21:21:13.060Z,66.30
2023-03-15T21:23:52.766Z,72.37
2023-03-15T21:26:22.546Z,75.67
2023-03-15T21:29:09.556Z,81.13
2023-03-15T21:31:38.450Z,81.33
2023-03-15T21:34:13.984Z,85.93
2023-03-15T21:37:09.736Z,92.70
2023-03-15T21:39:43.645Z,85.57
2023-03-15T21:42:14.125Z,97.40
2023-03-15T21:44:49.820Z,89.90
2023-03-15T21:47:24.740Z,93.17
2023-03-15T21:49:57.017Z,87.70
2023-03-15T21:52:27.856Z,88.07
2023-03-15T21:55:04.251Z,73.27
2023-03-15T21:57:34.165Z,72.57
2023-03-15T22:00:16.368Z,68.93
2023-03-15T22:02:49.384Z,63.17
2023-03-15T22:05:18.363Z,67.83
2023-03-15T22:07:57.705Z,59.33
2023-03-15T22:10:28.642Z,67.03
2023-03-15T22:12:59.178Z,71.90
2023-03-15T22:15:28.098Z,57.30
2023-03-15T22:17:56.674Z,55.23
2023-03-15T22:20:25.384Z,54.97
2023-03-15T22:23:13.727Z,50.67
2023-03-15T22:26:00.287Z,47.13
2023-03-15T22:28:37.639Z,57.10
2023-03-15T22:31:13.053Z,57.13
2023-03-15T22:33:44.045Z,45.20
2023-03-15T22:36:20.169Z,52.33
2023-03-15T22:38:58.980Z,52.40
2023-03-15T22:41:30.699Z,53.93
2023-03-15T22:44:05.167Z,52.00
2023-03-15T22:46:37.834Z,50.63
2023-03-15T22:49:10.717Z,55.33
2023-03-15T22:51:41.908Z,53.00
2023-03-15T22:54:13.208Z,53.80
2023-03-15T22:56:44.377Z,54.10
2023-03-15T22:59:17.137Z,51.20
2023-03-15T23:01:45.692Z,55.10
2023-03-15T23:04:17.129Z,54.87
